Time;durP1;ratioP1;P1;durP2;ratioP2;P2;SDS_P1;SDS_P2;PMS_P1;PMS_P2;Temp;Humidity;BMP_temperature;BMP_pressure;BME280_temperature;BME280_humidity;BME280_pressure;Samples;Min_cycle;Max_cycle;Signal;HPM_P1;HPM_P2
2021/06/20 00:00:37;;;;;;;8.18;7.43;;;22.90;99.90;;;;;;4995840;28;20050;-78
2021/06/20 00:03:06;;;;;;;8.15;7.55;;;22.90;99.90;;;;;;4991370;28;20045;-80
2021/06/20 00:05:34;;;;;;;8.55;7.95;;;22.90;99.90;;;;;;5006242;28;20080;-79
2021/06/20 00:08:09;;;;;;;8.98;8.18;;;23.00;99.90;;;;;;4988768;28;20101;-79
2021/06/20 00:10:38;;;;;;;8.38;7.82;;;23.00;99.90;;;;;;4987750;28;20046;-79
2021/06/20 00:13:05;;;;;;;8.88;8.27;;;23.00;99.90;;;;;;5005037;28;20053;-79
2021/06/20 00:15:33;;;;;;;9.10;8.40;;;23.00;99.90;;;;;;5010575;28;20725;-79
2021/06/20 00:18:02;;;;;;;8.75;8.05;;;23.00;99.90;;;;;;5019810;28;20136;-78
2021/06/20 00:20:31;;;;;;;8.65;7.95;;;23.10;99.90;;;;;;4977468;28;20248;-78
2021/06/20 00:22:59;;;;;;;8.48;7.95;;;23.00;99.90;;;;;;5012918;28;20049;-77
2021/06/20 00:25:26;;;;;;;9.27;8.52;;;23.10;99.90;;;;;;5011166;28;20691;-79
2021/06/20 00:27:54;;;;;;;9.27;8.50;;;23.00;99.90;;;;;;4997223;28;20595;-80
2021/06/20 00:30:24;;;;;;;9.82;8.90;;;23.00;99.90;;;;;;5016678;28;20444;-80
2021/06/20 00:32:51;;;;;;;9.73;8.88;;;23.00;99.90;;;;;;5015348;28;20049;-80
2021/06/20 00:35:18;;;;;;;10.07;9.23;;;23.00;99.90;;;;;;5016112;28;20052;-79
2021/06/20 00:37:47;;;;;;;9.52;9.00;;;23.00;99.90;;;;;;5016466;28;20041;-82
2021/06/20 00:40:15;;;;;;;10.13;9.25;;;23.00;99.90;;;;;;4994683;28;20116;-78
2021/06/20 00:42:43;;;;;;;11.00;9.30;;;23.00;99.90;;;;;;5000019;28;20038;-79
2021/06/20 00:45:13;;;;;;;9.95;9.25;;;23.00;99.90;;;;;;5004087;28;20049;-79
2021/06/20 00:47:40;;;;;;;10.10;9.30;;;23.00;99.90;;;;;;5014976;28;20042;-78
2021/06/20 00:50:11;;;;;;;10.30;9.52;;;23.00;99.90;;;;;;5018528;28;20056;-78
2021/06/20 00:52:40;;;;;;;9.93;9.30;;;22.90;99.90;;;;;;5005957;28;20107;-78
2021/06/20 00:55:08;;;;;;;10.73;9.68;;;22.90;99.90;;;;;;5019691;28;20680;-77
2021/06/20 00:57:36;;;;;;;10.60;9.60;;;22.90;99.90;;;;;;4981796;28;20059;-80
2021/06/20 01:00:06;;;;;;;10.70;9.75;;;22.90;99.90;;;;;;5013089;28;20068;-80
2021/06/20 01:02:34;;;;;;;11.40;10.40;;;22.90;99.90;;;;;;5011287;28;20053;-81
2021/06/20 01:05:01;;;;;;;11.25;10.40;;;22.90;99.90;;;;;;5011655;28;20058;-80
2021/06/20 01:07:28;;;;;;;11.60;10.43;;;23.00;99.90;;;;;;4995658;28;20071;-80
2021/06/20 01:09:55;;;;;;;11.48;10.50;;;23.00;99.90;;;;;;5013243;28;20081;-80
2021/06/20 01:12:23;;;;;;;12.23;11.00;;;23.10;99.90;;;;;;4996472;28;20576;-81
2021/06/20 01:14:51;;;;;;;21.00;11.00;;;23.10;99.90;;;;;;4998669;28;20676;-81
2021/06/20 01:17:19;;;;;;;12.35;11.20;;;23.10;99.90;;;;;;5011265;28;20056;-80
2021/06/20 01:19:47;;;;;;;12.20;8.90;;;23.10;99.90;;;;;;4998005;28;20397;-80
2021/06/20 01:22:43;;;;;;;12.32;9.35;;;23.00;99.90;;;;;;4997824;28;20058;-80
2021/06/20 01:25:13;;;;;;;13.75;10.88;;;22.90;99.90;;;;;;4998023;28;20070;-81
2021/06/20 01:27:50;;;;;;;13.52;12.18;;;22.90;99.90;;;;;;5018475;28;20080;-79
2021/06/20 01:30:29;;;;;;;10.75;9.73;;;22.70;99.90;;;;;;4993069;28;20056;-79
2021/06/20 01:32:58;;;;;;;10.40;6.28;;;22.10;99.90;;;;;;4999842;28;20077;-80
2021/06/20 01:35:26;;;;;;;13.00;6.50;;;21.30;99.90;;;;;;4981488;28;20046;-82
2021/06/20 01:37:54;;;;;;;10.15;4.95;;;20.40;99.90;;;;;;4981289;28;20410;-81
2021/06/20 01:40:22;;;;;;;18.27;4.03;;;19.60;99.90;;;;;;4995237;28;20104;-79
2021/06/20 01:42:50;;;;;;;7.25;2.35;;;19.20;99.90;;;;;;4993851;28;20076;-80
2021/06/20 01:45:20;;;;;;;3.47;2.40;;;18.90;99.90;;;;;;4994768;28;20408;-81
2021/06/20 01:47:51;;;;;;;11.85;2.85;;;18.70;99.90;;;;;;5017399;28;20128;-81
2021/06/20 01:50:18;;;;;;;11.98;2.40;;;18.60;99.90;;;;;;4992752;28;20141;-81
2021/06/20 01:52:46;;;;;;;15.85;4.43;;;18.60;99.90;;;;;;4993551;28;20141;-81
2021/06/20 01:55:15;;;;;;;12.90;3.83;;;18.50;99.90;;;;;;4993340;28;20081;-82
2021/06/20 01:57:43;;;;;;;16.50;3.35;;;18.30;99.90;;;;;;4995418;28;20072;-82
2021/06/20 02:00:13;;;;;;;16.10;4.68;;;18.30;99.90;;;;;;4996367;28;20049;-81
2021/06/20 02:02:42;;;;;;;21.20;4.00;;;18.20;99.90;;;;;;4995667;28;20046;-82
2021/06/20 02:05:10;;;;;;;15.98;4.30;;;18.20;99.90;;;;;;4995636;28;20034;-82
2021/06/20 02:07:38;;;;;;;17.95;5.30;;;18.10;99.90;;;;;;4997014;28;20038;-80
2021/06/20 02:10:09;;;;;;;26.23;5.32;;;18.00;99.90;;;;;;4978405;28;20049;-81
2021/06/20 02:12:37;;;;;;;14.98;4.45;;;17.90;99.90;;;;;;4978423;28;20139;-81
2021/06/20 02:15:10;;;;;;;11.25;5.07;;;17.90;99.90;;;;;;4973393;28;20048;-82
2021/06/20 02:17:38;;;;;;;11.32;4.25;;;17.90;99.90;;;;;;5005908;28;20077;-83
2021/06/20 02:20:14;;;;;;;9.13;3.92;;;18.00;99.90;;;;;;4996192;28;20112;-81
2021/06/20 02:22:43;;;;;;;12.55;5.05;;;17.90;99.90;;;;;;4977367;28;20106;-82
2021/06/20 02:25:13;;;;;;;16.17;5.28;;;17.90;99.90;;;;;;4973750;28;20046;-81
2021/06/20 02:27:42;;;;;;;11.18;3.95;;;17.90;99.90;;;;;;4976604;28;20053;-81
2021/06/20 02:30:11;;;;;;;11.98;4.43;;;17.80;99.90;;;;;;4975770;28;20043;-83
2021/06/20 02:32:38;;;;;;;11.68;4.07;;;17.80;99.90;;;;;;4978962;28;20298;-83
2021/06/20 02:35:07;;;;;;;8.25;4.22;;;17.90;99.90;;;;;;4959477;28;20145;-83
2021/06/20 02:37:35;;;;;;;9.40;3.92;;;17.90;99.90;;;;;;4994050;28;20246;-82
2021/06/20 02:40:03;;;;;;;14.35;3.60;;;17.90;99.90;;;;;;4992454;28;20049;-81
2021/06/20 02:42:30;;;;;;;12.10;3.95;;;17.80;99.90;;;;;;4972985;28;20046;-81
2021/06/20 02:44:57;;;;;;;6.32;4.10;;;17.90;99.90;;;;;;4971975;28;20046;-80
2021/06/20 02:47:24;;;;;;;11.05;4.68;;;17.90;99.90;;;;;;4992982;28;20045;-81
2021/06/20 02:49:52;;;;;;;12.43;4.00;;;18.10;99.90;;;;;;4998844;28;20056;-83
2021/06/20 02:52:19;;;;;;;8.30;3.72;;;18.20;99.90;;;;;;4980957;28;20045;-80
2021/06/20 02:54:52;;;;;;;9.65;4.35;;;18.20;99.90;;;;;;5013569;28;20418;-82
2021/06/20 02:57:24;;;;;;;8.73;4.22;;;18.30;99.90;;;;;;4976771;28;20050;-83
2021/06/20 02:59:52;;;;;;;8.85;4.07;;;18.20;99.90;;;;;;4978064;28;20650;-85
2021/06/20 03:02:20;;;;;;;14.85;5.05;;;18.30;99.90;;;;;;4996658;28;20052;-85
2021/06/20 03:04:48;;;;;;;15.73;5.10;;;18.20;99.90;;;;;;4981147;28;20073;-84
2021/06/20 03:07:15;;;;;;;20.98;5.72;;;18.20;99.90;;;;;;4979920;28;20053;-82
2021/06/20 03:09:42;;;;;;;11.10;4.03;;;18.00;99.90;;;;;;4998188;28;20105;-85
2021/06/20 03:12:11;;;;;;;10.90;2.92;;;17.90;99.90;;;;;;4997056;28;20100;-84
2021/06/20 03:14:39;;;;;;;6.25;3.10;;;17.80;99.90;;;;;;5000050;28;20140;-82
2021/06/20 03:17:21;;;;;;;8.25;2.50;;;17.70;99.90;;;;;;5005235;28;20065;-80
2021/06/20 03:19:49;;;;;;;11.88;3.03;;;17.70;99.90;;;;;;4993627;28;20137;-81
2021/06/20 03:22:19;;;;;;;8.75;3.30;;;17.70;99.90;;;;;;4996529;28;20049;-84
2021/06/20 03:24:52;;;;;;;6.30;2.67;;;17.70;99.90;;;;;;4999864;28;20148;-82
2021/06/20 03:27:20;;;;;;;7.30;3.30;;;17.70;99.90;;;;;;5002607;28;20049;-83
2021/06/20 03:29:58;;;;;;;10.30;4.05;;;17.80;99.90;;;;;;4995423;28;20510;-86
2021/06/20 03:32:26;;;;;;;8.07;3.50;;;17.70;99.90;;;;;;4982301;28;20051;-85
2021/06/20 03:34:53;;;;;;;7.80;3.50;;;17.80;99.90;;;;;;4993684;28;20050;-81
2021/06/20 03:37:21;;;;;;;9.45;3.50;;;17.70;99.90;;;;;;5006630;28;20102;-84
2021/06/20 03:39:49;;;;;;;6.82;3.67;;;17.70;99.90;;;;;;5007197;28;20058;-83
2021/06/20 03:42:18;;;;;;;9.55;3.88;;;17.70;99.90;;;;;;4990201;28;20046;-82
2021/06/20 03:44:49;;;;;;;5.68;2.92;;;17.70;99.90;;;;;;4992082;28;20043;-84
2021/06/20 03:47:16;;;;;;;5.30;3.75;;;17.70;99.90;;;;;;4993862;28;20696;-85
2021/06/20 03:49:43;;;;;;;12.57;4.82;;;17.80;99.90;;;;;;4995735;28;20046;-82
2021/06/20 03:52:13;;;;;;;5.47;4.00;;;17.90;99.90;;;;;;4992878;28;20077;-86
2021/06/20 03:54:49;;;;;;;13.05;4.43;;;17.90;99.90;;;;;;4988334;28;20054;-84
2021/06/20 03:57:19;;;;;;;9.60;4.20;;;17.90;99.90;;;;;;4989968;28;20573;-84
2021/06/20 03:59:53;;;;;;;8.35;4.40;;;18.00;99.90;;;;;;5005477;28;20125;-86
2021/06/20 04:02:22;;;;;;;13.43;5.10;;;17.90;99.90;;;;;;4982238;28;20046;-84
2021/06/20 04:04:52;;;;;;;12.43;5.22;;;17.90;99.90;;;;;;4991073;28;20049;-84
2021/06/20 04:07:19;;;;;;;10.65;4.80;;;17.90;99.90;;;;;;4999568;28;20682;-83
2021/06/20 04:09:47;;;;;;;11.15;4.72;;;18.00;99.90;;;;;;5019610;28;20054;-85
2021/06/20 04:12:19;;;;;;;10.77;5.07;;;18.00;99.90;;;;;;4998406;28;20059;-84
2021/06/20 04:14:49;;;;;;;8.90;5.65;;;18.20;99.90;;;;;;5007824;28;20049;-83
2021/06/20 04:17:16;;;;;;;11.32;5.45;;;18.10;99.90;;;;;;4992533;28;20061;-85
2021/06/20 04:19:43;;;;;;;13.15;7.22;;;18.00;99.90;;;;;;5020184;28;20068;-80
2021/06/20 04:22:12;;;;;;;11.75;6.72;;;18.10;99.90;;;;;;5011175;28;20521;-82
2021/06/20 04:24:42;;;;;;;15.15;7.82;;;18.10;99.90;;;;;;5008298;28;20693;-82
2021/06/20 04:27:09;;;;;;;14.43;8.55;;;18.20;99.90;;;;;;4967613;28;20046;-82
2021/06/20 04:29:36;;;;;;;16.88;9.10;;;18.20;99.90;;;;;;4970263;28;20050;-83
2021/06/20 04:32:03;;;;;;;18.50;9.38;;;18.20;99.90;;;;;;5004644;28;20499;-82
2021/06/20 04:34:30;;;;;;;15.55;9.60;;;18.30;99.90;;;;;;5009054;28;20046;-83
2021/06/20 04:36:57;;;;;;;19.27;10.82;;;18.30;99.90;;;;;;4992331;28;20046;-84
2021/06/20 04:39:24;;;;;;;17.25;9.90;;;18.30;99.90;;;;;;4987652;28;20031;-78
2021/06/20 04:41:52;;;;;;;13.93;8.95;;;18.30;99.90;;;;;;4989417;28;20486;-80
2021/06/20 04:47:06;;;;;;;15.05;9.68;;;18.40;99.90;;;;;;4962388;28;20074;-80
2021/06/20 04:49:34;;;;;;;14.10;7.95;;;18.40;99.90;;;;;;5012508;28;20062;-81
2021/06/20 04:52:04;;;;;;;11.32;7.35;;;18.40;99.90;;;;;;4996398;28;20067;-82
2021/06/20 04:54:33;;;;;;;14.30;7.47;;;18.40;99.90;;;;;;5003022;28;20045;-81
2021/06/20 04:57:02;;;;;;;12.10;6.88;;;18.30;99.90;;;;;;5019379;28;20520;-82
2021/06/20 04:59:29;;;;;;;12.60;6.72;;;18.40;99.90;;;;;;4987248;28;20053;-83
2021/06/20 05:01:56;;;;;;;9.20;6.82;;;18.40;99.90;;;;;;5016695;28;20416;-82
2021/06/20 05:04:23;;;;;;;11.80;6.55;;;18.30;99.90;;;;;;5003712;28;20046;-83
2021/06/20 05:06:51;;;;;;;11.98;6.78;;;18.30;99.90;;;;;;5001553;28;20080;-82
2021/06/20 05:09:18;;;;;;;11.65;6.68;;;18.40;99.90;;;;;;4997726;28;20132;-83
2021/06/20 05:11:45;;;;;;;10.68;5.78;;;18.30;99.90;;;;;;4997527;28;20069;-80
2021/06/20 05:14:12;;;;;;;11.38;6.90;;;18.40;99.90;;;;;;4995239;28;20140;-83
2021/06/20 05:16:38;;;;;;;13.80;7.15;;;18.50;99.90;;;;;;5003026;28;20069;-81
2021/06/20 05:19:06;;;;;;;15.23;6.55;;;18.60;99.90;;;;;;4995344;28;20046;-83
2021/06/20 05:21:33;;;;;;;10.98;5.65;;;18.60;99.90;;;;;;5012823;28;20049;-83
2021/06/20 05:24:04;;;;;;;10.57;5.80;;;18.60;99.90;;;;;;4996830;28;20089;-83
2021/06/20 05:26:32;;;;;;;12.48;6.00;;;18.70;99.90;;;;;;5007941;28;20440;-80
2021/06/20 05:28:59;;;;;;;7.97;5.18;;;18.80;99.90;;;;;;5022568;28;20050;-78
2021/06/20 05:31:26;;;;;;;9.57;6.00;;;18.80;99.90;;;;;;5021776;28;20120;-83
2021/06/20 05:33:56;;;;;;;10.15;5.07;;;19.00;99.90;;;;;;5019570;28;20041;-81
2021/06/20 05:36:23;;;;;;;9.32;5.13;;;19.30;99.90;;;;;;5020920;28;20076;-82
2021/06/20 05:38:50;;;;;;;8.10;4.63;;;19.50;99.90;;;;;;5019375;28;20041;-83
2021/06/20 05:41:17;;;;;;;9.52;4.78;;;19.80;99.90;;;;;;5000606;28;20051;-81
2021/06/20 05:43:44;;;;;;;8.23;4.13;;;19.90;99.90;;;;;;5004999;28;20038;-82
2021/06/20 05:46:11;;;;;;;10.98;4.05;;;20.10;99.90;;;;;;4995201;28;20064;-83
2021/06/20 05:48:39;;;;;;;11.38;4.97;;;20.40;99.90;;;;;;4990544;28;20042;-83
2021/06/20 05:51:06;;;;;;;9.73;4.47;;;20.60;99.90;;;;;;5007040;28;20503;-80
2021/06/20 05:53:34;;;;;;;11.88;4.15;;;20.80;99.90;;;;;;4999729;28;20064;-82
2021/06/20 05:56:01;;;;;;;12.10;4.18;;;21.00;99.90;;;;;;4997936;28;20048;-84
2021/06/20 05:58:28;;;;;;;8.07;3.97;;;21.10;99.90;;;;;;5014726;28;20057;-80
2021/06/20 06:00:55;;;;;;;13.18;6.25;;;21.30;99.90;;;;;;4995512;28;20133;-80
2021/06/20 06:03:22;;;;;;;10.15;5.93;;;21.40;99.90;;;;;;4996365;28;20524;-81
2021/06/20 06:05:49;;;;;;;14.75;6.47;;;21.50;99.90;;;;;;5010943;28;20100;-81
2021/06/20 06:08:19;;;;;;;11.65;5.72;;;21.60;99.90;;;;;;4995255;28;20046;-82
2021/06/20 06:10:46;;;;;;;14.15;6.22;;;21.60;99.90;;;;;;4993811;28;20453;-83
2021/06/20 06:13:13;;;;;;;12.05;6.50;;;21.60;99.90;;;;;;4977740;28;20181;-81
2021/06/20 06:15:40;;;;;;;11.68;6.25;;;21.70;99.90;;;;;;4998884;28;20080;-80
2021/06/20 06:18:07;;;;;;;13.32;5.20;;;21.80;99.90;;;;;;4985887;28;20042;-81
2021/06/20 06:20:34;;;;;;;11.45;5.03;;;21.70;99.90;;;;;;5008576;28;20319;-83
2021/06/20 06:23:01;;;;;;;10.23;5.30;;;21.70;99.90;;;;;;5008744;28;20069;-80
2021/06/20 06:25:28;;;;;;;15.32;5.55;;;21.90;99.90;;;;;;4992674;28;20106;-81
2021/06/20 06:27:55;;;;;;;13.00;6.00;;;22.00;99.90;;;;;;5009446;28;20106;-78
2021/06/20 06:30:23;;;;;;;12.40;5.93;;;22.10;99.90;;;;;;5007074;28;20044;-80
2021/06/20 06:32:51;;;;;;;11.63;5.88;;;22.10;99.90;;;;;;5008987;28;20056;-78
2021/06/20 06:35:18;;;;;;;8.77;5.72;;;22.00;99.90;;;;;;5001209;28;20066;-81
2021/06/20 06:37:46;;;;;;;14.23;5.70;;;22.00;99.90;;;;;;4994579;28;20851;-79
2021/06/20 06:40:14;;;;;;;13.90;6.78;;;22.10;99.90;;;;;;4995789;28;20109;-81
2021/06/20 06:42:41;;;;;;;11.15;5.90;;;22.20;99.90;;;;;;5015628;28;20136;-81
2021/06/20 06:45:08;;;;;;;12.65;7.20;;;22.30;99.90;;;;;;4995157;28;20119;-79
2021/06/20 06:47:36;;;;;;;13.90;6.50;;;22.50;99.90;;;;;;5022956;28;20045;-79
2021/06/20 06:50:05;;;;;;;14.57;7.55;;;22.60;99.90;;;;;;4988420;28;20421;-81
2021/06/20 06:52:32;;;;;;;8.75;6.93;;;22.70;99.90;;;;;;4961622;28;20050;-81
2021/06/20 06:54:59;;;;;;;12.88;7.30;;;22.70;99.90;;;;;;4961093;28;20050;-80
2021/06/20 06:57:27;;;;;;;12.18;8.07;;;22.80;99.90;;;;;;4993856;28;20050;-80
2021/06/20 06:59:54;;;;;;;11.15;8.15;;;22.50;99.90;;;;;;4993111;28;20049;-81
2021/06/20 07:02:24;;;;;;;14.02;8.50;;;22.50;99.90;;;;;;4993465;28;20512;-80
2021/06/20 07:04:51;;;;;;;11.77;7.10;;;22.50;99.90;;;;;;4977305;28;20050;-81
2021/06/20 07:07:25;;;;;;;10.45;7.05;;;22.60;99.90;;;;;;4991138;28;20074;-80
2021/06/20 07:09:52;;;;;;;12.32;7.63;;;22.70;99.90;;;;;;4992811;28;20641;-80
2021/06/20 07:12:20;;;;;;;13.85;8.88;;;22.80;99.90;;;;;;5008383;28;20099;-78
2021/06/20 07:14:47;;;;;;;15.20;8.88;;;22.90;99.90;;;;;;4995059;28;20531;-82
2021/06/20 07:17:14;;;;;;;9.75;8.05;;;22.90;99.90;;;;;;5000539;28;20070;-79
2021/06/20 07:19:41;;;;;;;14.60;8.32;;;23.20;99.90;;;;;;4973332;28;20054;-79
2021/06/20 07:22:08;;;;;;;10.60;8.20;;;23.40;99.90;;;;;;4990005;28;20050;-80
2021/06/20 07:24:35;;;;;;;13.70;9.02;;;23.90;99.90;;;;;;5012561;28;20046;-79
2021/06/20 07:27:02;;;;;;;13.68;9.80;;;23.80;99.90;;;;;;4997821;28;20058;-80
2021/06/20 07:29:29;;;;;;;10.82;9.38;;;23.70;99.90;;;;;;5014417;28;20392;-80
2021/06/20 07:32:00;;;;;;;10.50;9.38;;;23.60;99.90;;;;;;4980176;28;20478;-79
2021/06/20 07:34:27;;;;;;;12.93;10.95;;;23.80;99.90;;;;;;4996001;28;20061;-79
2021/06/20 07:36:54;;;;;;;11.35;10.35;;;24.00;99.90;;;;;;5014057;28;20057;-79
2021/06/20 07:39:21;;;;;;;13.10;10.32;;;23.90;99.90;;;;;;5010561;28;20046;-79
2021/06/20 07:41:48;;;;;;;11.45;10.32;;;23.80;99.90;;;;;;5001301;28;20068;-81
2021/06/20 07:44:15;;;;;;;13.27;10.80;;;24.00;99.90;;;;;;5009825;28;20525;-80
2021/06/20 07:46:42;;;;;;;12.35;11.27;;;24.00;99.90;;;;;;5008113;28;20068;-82
2021/06/20 07:49:09;;;;;;;12.23;11.20;;;24.00;99.90;;;;;;4983682;28;20156;-79
2021/06/20 07:51:36;;;;;;;14.07;11.55;;;23.80;99.90;;;;;;4996421;28;20045;-80
2021/06/20 07:54:03;;;;;;;12.43;11.32;;;23.80;99.90;;;;;;4996466;28;20038;-79
2021/06/20 07:56:30;;;;;;;11.45;10.32;;;23.70;99.90;;;;;;5015109;28;20058;-82
2021/06/20 07:58:57;;;;;;;13.30;10.73;;;24.00;99.90;;;;;;4998488;28;20059;-78
2021/06/20 08:01:25;;;;;;;11.95;10.88;;;24.10;99.90;;;;;;5010528;28;20049;-80
2021/06/20 08:03:52;;;;;;;12.52;11.50;;;24.30;99.90;;;;;;5013184;28;20064;-80
2021/06/20 08:06:22;;;;;;;11.13;10.18;;;24.30;99.90;;;;;;4997778;28;20042;-80
2021/06/20 08:08:55;;;;;;;12.38;10.30;;;24.20;99.90;;;;;;4980401;28;20042;-78
2021/06/20 08:11:23;;;;;;;10.90;10.10;;;24.20;99.90;;;;;;5013272;28;20049;-78
2021/06/20 08:13:50;;;;;;;11.40;10.27;;;24.10;99.90;;;;;;5017323;28;20269;-79
2021/06/20 08:16:18;;;;;;;11.02;10.18;;;24.10;99.90;;;;;;5012372;28;20050;-80
2021/06/20 08:18:45;;;;;;;11.27;10.32;;;24.20;99.90;;;;;;5007094;28;20406;-80
2021/06/20 08:21:12;;;;;;;11.13;10.07;;;24.20;99.90;;;;;;4984241;28;20098;-78
2021/06/20 08:23:39;;;;;;;10.98;10.05;;;24.30;99.90;;;;;;4998332;28;20069;-78
2021/06/20 08:26:06;;;;;;;9.95;9.25;;;24.40;99.90;;;;;;4993519;28;20125;-78
2021/06/20 08:28:33;;;;;;;10.38;9.45;;;24.50;99.90;;;;;;4999364;28;20038;-80
2021/06/20 08:31:01;;;;;;;11.15;10.38;;;24.50;99.90;;;;;;4997976;28;20043;-79
2021/06/20 08:33:28;;;;;;;11.18;10.10;;;24.40;99.90;;;;;;4994693;28;20047;-79
2021/06/20 08:35:55;;;;;;;10.27;9.65;;;24.40;99.90;;;;;;4996288;28;20142;-78
2021/06/20 08:38:22;;;;;;;10.93;10.10;;;24.40;99.90;;;;;;4999308;28;20132;-80
2021/06/20 08:40:49;;;;;;;10.40;9.60;;;24.70;99.90;;;;;;5016544;28;20046;-79
2021/06/20 08:43:16;;;;;;;10.68;9.98;;;24.60;99.90;;;;;;4999029;28;20059;-81
2021/06/20 08:45:43;;;;;;;11.15;10.20;;;24.50;99.90;;;;;;5015923;28;20052;-79
2021/06/20 08:48:13;;;;;;;10.95;10.10;;;24.40;99.90;;;;;;5018985;28;20056;-80
2021/06/20 08:50:41;;;;;;;10.90;9.95;;;24.30;99.90;;;;;;5035406;28;20048;-78
2021/06/20 08:53:08;;;;;;;10.90;10.20;;;24.40;99.90;;;;;;5036520;28;20141;-80
2021/06/20 08:55:35;;;;;;;10.85;10.00;;;24.60;99.90;;;;;;5024026;28;20068;-81
2021/06/20 08:58:26;;;;;;;10.77;9.95;;;24.90;99.90;;;;;;5031549;28;20057;-78
2021/06/20 09:00:58;;;;;;;11.45;10.43;;;25.00;99.90;;;;;;5049601;28;20044;-78
2021/06/20 09:03:45;;;;;;;13.18;10.50;;;25.00;99.90;;;;;;5016895;28;20661;-81
2021/06/20 09:06:20;;;;;;;11.32;10.63;;;25.00;99.90;;;;;;5012043;28;20041;-79
2021/06/20 09:08:52;;;;;;;11.25;10.50;;;24.90;99.90;;;;;;5007102;28;20049;-80
2021/06/20 09:11:32;;;;;;;9.95;9.35;;;24.90;99.90;;;;;;4990410;28;20457;-80
2021/06/20 09:14:02;;;;;;;11.20;10.38;;;25.20;99.90;;;;;;5000172;28;20057;-78
2021/06/20 09:16:30;;;;;;;12.30;10.82;;;25.50;99.90;;;;;;5018784;28;20093;-80
2021/06/20 09:18:58;;;;;;;11.23;10.20;;;25.70;99.90;;;;;;4962626;28;20106;-80
2021/06/20 09:21:26;;;;;;;11.40;10.68;;;25.70;99.90;;;;;;5010279;28;20059;-79
2021/06/20 09:23:55;;;;;;;11.18;10.25;;;25.50;99.90;;;;;;5000531;28;20042;-79
2021/06/20 09:26:40;;;;;;;11.52;10.50;;;25.40;99.90;;;;;;5004953;28;20073;-78
2021/06/20 09:29:09;;;;;;;11.48;10.43;;;25.30;99.90;;;;;;5029448;28;20068;-78
2021/06/20 09:31:50;;;;;;;10.90;10.13;;;25.30;99.90;;;;;;5029453;28;20046;-79
2021/06/20 09:34:17;;;;;;;10.38;9.68;;;25.50;99.90;;;;;;5033523;28;20077;-80
2021/06/20 09:36:46;;;;;;;10.43;9.90;;;25.50;99.90;;;;;;5013978;28;20034;-80
2021/06/20 09:39:23;;;;;;;11.15;10.23;;;25.90;99.90;;;;;;4997905;28;20038;-79
2021/06/20 09:42:01;;;;;;;10.63;9.93;;;26.00;99.90;;;;;;5012256;28;20057;-79
2021/06/20 09:44:57;;;;;;;10.63;9.93;;;25.80;99.90;;;;;;5019475;28;20076;-80
2021/06/20 09:47:26;;;;;;;10.25;9.65;;;25.80;99.90;;;;;;5020277;28;20572;-79
2021/06/20 09:49:54;;;;;;;10.85;10.10;;;25.90;99.90;;;;;;5017008;28;20053;-80
2021/06/20 09:52:34;;;;;;;9.88;9.27;;;26.20;99.90;;;;;;5015739;28;20132;-80
2021/06/20 09:55:08;;;;;;;11.23;10.65;;;26.20;99.90;;;;;;5017129;28;20045;-82
2021/06/20 09:57:42;;;;;;;11.32;10.68;;;26.40;99.90;;;;;;5019830;28;20508;-79
2021/06/20 10:00:11;;;;;;;11.65;10.88;;;26.50;99.90;;;;;;5021069;28;20045;-81
2021/06/20 10:02:39;;;;;;;11.80;11.13;;;26.40;99.90;;;;;;5031249;28;20623;-80
2021/06/20 10:05:07;;;;;;;11.77;10.85;;;26.70;99.90;;;;;;5016071;28;20425;-81
2021/06/20 10:07:35;;;;;;;12.07;11.00;;;26.70;99.90;;;;;;5031491;28;20065;-79
2021/06/20 10:10:06;;;;;;;11.60;10.73;;;26.80;99.90;;;;;;5007719;28;20057;-80
2021/06/20 10:12:33;;;;;;;12.30;11.48;;;26.70;99.90;;;;;;4994446;28;20137;-80
2021/06/20 10:15:03;;;;;;;11.18;10.68;;;26.60;99.90;;;;;;4997079;28;20049;-82
2021/06/20 10:17:33;;;;;;;11.45;10.85;;;26.60;99.90;;;;;;5039656;28;20501;-81
2021/06/20 10:20:06;;;;;;;11.20;10.50;;;26.90;99.90;;;;;;5034501;28;20552;-79
2021/06/20 10:22:35;;;;;;;11.70;11.10;;;26.90;99.90;;;;;;5017995;28;20105;-81
2021/06/20 10:25:05;;;;;;;11.85;11.05;;;26.80;99.90;;;;;;5020738;28;20262;-81
2021/06/20 10:27:41;;;;;;;11.65;10.85;;;27.00;99.90;;;;;;5034383;28;20053;-81
2021/06/20 10:30:34;;;;;;;11.10;10.10;;;27.00;99.90;;;;;;5033094;28;20083;-78
2021/06/20 10:33:12;;;;;;;10.55;9.95;;;27.10;99.90;;;;;;5029130;28;20060;-79
2021/06/20 10:35:41;;;;;;;11.48;10.77;;;27.20;99.90;;;;;;4995882;28;20056;-80
2021/06/20 10:38:08;;;;;;;11.07;10.57;;;27.60;99.90;;;;;;5012967;28;20069;-79
2021/06/20 10:40:44;;;;;;;10.80;10.20;;;27.80;99.90;;;;;;5015839;28;20124;-79
2021/06/20 10:43:16;;;;;;;10.13;9.52;;;27.80;99.90;;;;;;5005405;28;20053;-79
2021/06/20 10:45:44;;;;;;;10.43;9.77;;;27.70;99.90;;;;;;5023672;28;20049;-80
2021/06/20 10:48:19;;;;;;;10.88;10.30;;;27.50;99.90;;;;;;5031260;28;20113;-81
2021/06/20 10:50:52;;;;;;;10.15;9.70;;;27.10;99.90;;;;;;5015456;28;20081;-80
2021/06/20 10:53:20;;;;;;;10.43;9.77;;;27.10;99.90;;;;;;4980407;28;20103;-78
2021/06/20 10:55:53;;;;;;;10.73;10.10;;;26.90;99.90;;;;;;4995903;28;20050;-79
2021/06/20 10:58:32;;;;;;;11.32;10.50;;;26.70;99.90;;;;;;4994182;28;20077;-80
2021/06/20 11:01:08;;;;;;;10.27;9.68;;;26.70;99.90;;;;;;5000518;28;20132;-80
2021/06/20 11:03:36;;;;;;;10.60;9.85;;;27.00;99.90;;;;;;5033315;28;20053;-81
2021/06/20 11:06:10;;;;;;;10.85;10.32;;;27.20;99.90;;;;;;5031243;28;20095;-78
2021/06/20 11:08:39;;;;;;;10.05;9.45;;;26.70;99.90;;;;;;5019730;28;20049;-79
2021/06/20 11:11:15;;;;;;;11.00;10.18;;;26.30;99.90;;;;;;4980213;28;20065;-80
2021/06/20 11:13:47;;;;;;;11.60;10.77;;;26.20;99.90;;;;;;5007221;28;20065;-79
2021/06/20 11:16:28;;;;;;;11.30;10.60;;;26.60;99.90;;;;;;5009736;28;20042;-80
2021/06/20 11:19:24;;;;;;;11.10;10.60;;;26.70;99.90;;;;;;5015620;28;20054;-80
2021/06/20 11:22:05;;;;;;;11.02;10.52;;;27.20;99.90;;;;;;4998258;28;20065;-80
2021/06/20 11:24:43;;;;;;;10.57;10.18;;;27.00;99.90;;;;;;5004630;28;20045;-80
2021/06/20 11:27:16;;;;;;;11.55;10.85;;;26.80;99.90;;;;;;5016106;28;20483;-80
2021/06/20 11:29:49;;;;;;;11.23;10.60;;;26.90;99.90;;;;;;5019263;28;20130;-79
2021/06/20 11:32:20;;;;;;;10.43;9.93;;;26.70;99.90;;;;;;5022593;28;20049;-80
2021/06/20 11:34:59;;;;;;;11.00;10.25;;;26.90;99.90;;;;;;4997864;28;20100;-80
2021/06/20 11:37:29;;;;;;;10.10;9.50;;;27.10;99.90;;;;;;4995907;28;20050;-80
2021/06/20 11:39:59;;;;;;;9.95;9.55;;;26.80;99.90;;;;;;5012414;28;20551;-81
2021/06/20 11:42:34;;;;;;;10.50;10.00;;;26.60;99.90;;;;;;4980040;28;20050;-79
2021/06/20 11:45:14;;;;;;;11.07;10.38;;;26.60;99.90;;;;;;5006339;28;20045;-80
2021/06/20 11:47:54;;;;;;;11.07;10.60;;;26.80;99.90;;;;;;5000091;28;20567;-81
2021/06/20 11:50:29;;;;;;;10.30;9.75;;;27.00;99.90;;;;;;4993171;28;20050;-82
2021/06/20 11:53:08;;;;;;;11.38;10.70;;;27.10;99.90;;;;;;4994049;28;20176;-80
2021/06/20 11:55:39;;;;;;;10.30;9.80;;;27.00;99.90;;;;;;4996017;28;20042;-80
2021/06/20 11:58:09;;;;;;;9.48;9.07;;;27.10;99.90;;;;;;4997163;28;20060;-80
2021/06/20 12:00:39;;;;;;;10.20;9.70;;;27.20;99.90;;;;;;4996950;28;20110;-79
2021/06/20 12:03:07;;;;;;;11.00;10.38;;;27.30;99.90;;;;;;4979847;28;20050;-80
2021/06/20 12:05:36;;;;;;;10.57;9.80;;;27.20;99.90;;;;;;5022924;28;20066;-80
2021/06/20 12:08:05;;;;;;;11.50;10.90;;;27.30;99.90;;;;;;4992467;28;20050;-81
2021/06/20 12:10:33;;;;;;;10.05;9.55;;;27.20;99.90;;;;;;5009422;28;20153;-78
2021/06/20 12:13:05;;;;;;;10.25;9.65;;;27.40;99.90;;;;;;4994831;28;20072;-79
2021/06/20 12:15:39;;;;;;;9.35;8.75;;;27.10;99.90;;;;;;5002560;28;20092;-79
2021/06/20 12:18:08;;;;;;;10.50;10.00;;;27.10;99.90;;;;;;4999169;28;20136;-81
2021/06/20 12:20:51;;;;;;;10.95;10.35;;;27.10;99.90;;;;;;4999263;28;20080;-78
2021/06/20 12:23:23;;;;;;;11.20;10.52;;;27.20;99.90;;;;;;5000527;28;20045;-79
2021/06/20 12:25:50;;;;;;;10.18;9.75;;;27.50;99.90;;;;;;5021831;28;20064;-77
2021/06/20 12:28:19;;;;;;;10.30;9.68;;;27.90;99.90;;;;;;5018798;28;20049;-79
2021/06/20 12:30:52;;;;;;;10.85;10.05;;;27.80;99.90;;;;;;5033899;28;20042;-80
2021/06/20 12:33:23;;;;;;;9.73;9.20;;;27.60;99.90;;;;;;5019377;28;20056;-81
2021/06/20 12:35:56;;;;;;;9.80;9.38;;;27.70;99.90;;;;;;5019223;28;20623;-81
2021/06/20 12:38:24;;;;;;;9.85;9.35;;;27.50;99.90;;;;;;5029867;28;20065;-80
2021/06/20 12:40:51;;;;;;;9.57;9.10;;;27.20;99.90;;;;;;5001360;28;20050;-80
2021/06/20 12:43:20;;;;;;;10.02;9.50;;;27.50;99.90;;;;;;4995063;28;20484;-79
2021/06/20 12:46:00;;;;;;;10.10;9.52;;;27.60;99.90;;;;;;4988570;28;20066;-81
2021/06/20 12:48:36;;;;;;;9.40;8.90;;;27.70;99.90;;;;;;4998556;28;20076;-79
2021/06/20 12:51:05;;;;;;;10.20;9.60;;;27.50;99.90;;;;;;5002842;28;20061;-80